Time;durP1;ratioP1;P1;durP2;ratioP2;P2;SDS_P1;SDS_P2;PMS_P1;PMS_P2;Temp;Humidity;BMP_temperature;BMP_pressure;BME280_temperature;BME280_humidity;BME280_pressure;Samples;Min_cycle;Max_cycle;Signal;HPM_P1;HPM_P2
2022/03/31 00:00:35;;;;;;;7.28;2.10;;;2.00;99.90;;;;;;5015803;28;20068;-75
2022/03/31 00:03:02;;;;;;;4.22;1.92;;;2.00;99.90;;;;;;5015909;28;20044;-75
2022/03/31 00:05:28;;;;;;;4.00;2.00;;;2.00;99.90;;;;;;5015767;28;20437;-75
2022/03/31 00:07:56;;;;;;;5.25;1.70;;;2.00;99.90;;;;;;5015817;28;20103;-75
2022/03/31 00:10:24;;;;;;;2.53;1.63;;;2.00;99.90;;;;;;5015171;28;20507;-75
2022/03/31 00:12:50;;;;;;;5.35;1.63;;;2.00;99.90;;;;;;5015536;28;20047;-75
2022/03/31 00:15:16;;;;;;;5.93;1.92;;;1.90;99.90;;;;;;5015761;28;20041;-75
2022/03/31 00:17:42;;;;;;;4.00;1.73;;;1.90;99.90;;;;;;5015704;28;20088;-75
2022/03/31 00:33:19;;;;;;;3.75;1.60;;;1.80;99.90;;;;;;5015261;28;20103;-76
2022/03/31 00:35:45;;;;;;;3.67;1.63;;;1.70;99.90;;;;;;5015114;28;20037;-76
2022/03/31 00:38:12;;;;;;;6.05;1.83;;;1.70;99.90;;;;;;5014492;28;20038;-76
2022/03/31 00:40:38;;;;;;;4.88;1.67;;;1.80;99.90;;;;;;5015010;28;20080;-76
2022/03/31 00:43:03;;;;;;;5.68;1.90;;;1.70;99.90;;;;;;5015059;28;20041;-76
2022/03/31 00:45:46;;;;;;;6.03;1.80;;;1.70;99.90;;;;;;5015266;28;20038;-76
2022/03/31 00:48:13;;;;;;;4.72;1.90;;;1.70;99.90;;;;;;5014876;28;20045;-76
2022/03/31 00:50:39;;;;;;;3.70;1.77;;;1.70;99.90;;;;;;4998394;28;20033;-76
2022/03/31 00:53:05;;;;;;;3.78;1.50;;;1.70;99.90;;;;;;4998577;28;20038;-76
2022/03/31 00:55:31;;;;;;;6.20;1.92;;;1.70;99.90;;;;;;5015081;28;20140;-76
2022/03/31 00:57:56;;;;;;;7.85;2.03;;;1.70;99.90;;;;;;5014468;28;20476;-76
2022/03/31 01:00:22;;;;;;;3.92;1.80;;;1.70;99.90;;;;;;4998525;28;20450;-76
2022/03/31 01:02:48;;;;;;;7.22;2.03;;;1.70;99.90;;;;;;5014791;28;20480;-76
2022/03/31 01:05:16;;;;;;;6.20;1.95;;;1.70;99.90;;;;;;5014926;28;20116;-76
2022/03/31 01:07:42;;;;;;;5.47;1.85;;;1.70;99.90;;;;;;5013849;28;20033;-76
2022/03/31 01:10:10;;;;;;;5.00;1.70;;;1.60;99.90;;;;;;5015054;28;20128;-76
2022/03/31 01:12:36;;;;;;;8.50;2.03;;;1.70;99.90;;;;;;5014047;28;20495;-76
2022/03/31 01:15:15;;;;;;;4.95;1.95;;;1.70;99.90;;;;;;5014729;28;20049;-76
2022/03/31 01:17:43;;;;;;;4.80;2.15;;;1.60;99.90;;;;;;5014650;28;20048;-76
2022/03/31 01:20:11;;;;;;;4.20;1.80;;;1.60;99.90;;;;;;5014559;28;20025;-76
2022/03/31 01:22:37;;;;;;;5.32;2.25;;;1.60;99.90;;;;;;5014118;28;20037;-76
2022/03/31 01:25:05;;;;;;;5.53;2.15;;;1.50;99.90;;;;;;5014584;28;20447;-76
2022/03/31 01:27:34;;;;;;;3.55;1.90;;;1.60;99.90;;;;;;4998095;28;20041;-76
2022/03/31 01:30:00;;;;;;;7.07;2.13;;;1.50;99.90;;;;;;5014251;28;20045;-77
2022/03/31 01:32:26;;;;;;;5.53;2.03;;;1.50;99.90;;;;;;5014356;28;20401;-77
2022/03/31 01:34:51;;;;;;;4.78;2.10;;;1.50;99.90;;;;;;5013953;28;20116;-77
2022/03/31 01:37:17;;;;;;;5.18;2.30;;;1.50;99.90;;;;;;5014288;28;20088;-76
2022/03/31 01:39:43;;;;;;;3.63;2.30;;;1.50;99.90;;;;;;5014270;28;20065;-77
2022/03/31 01:42:09;;;;;;;6.50;2.85;;;1.50;99.90;;;;;;5013919;28;20105;-77
2022/03/31 01:44:35;;;;;;;3.50;2.25;;;1.50;99.90;;;;;;4998606;28;20049;-77
2022/03/31 01:47:01;;;;;;;6.22;2.80;;;1.50;99.90;;;;;;4998266;28;20075;-77
2022/03/31 01:49:27;;;;;;;4.88;2.33;;;1.50;99.90;;;;;;5014242;28;20481;-76
2022/03/31 01:51:52;;;;;;;5.25;2.33;;;1.50;99.90;;;;;;5013471;28;20052;-77
2022/03/31 01:54:18;;;;;;;8.25;2.67;;;1.50;99.90;;;;;;5013815;28;20132;-77
2022/03/31 01:56:44;;;;;;;5.97;3.10;;;1.60;99.90;;;;;;5018534;28;20492;-77
2022/03/31 01:59:11;;;;;;;4.50;2.25;;;1.50;99.90;;;;;;5013830;28;20044;-77
2022/03/31 02:01:37;;;;;;;7.75;2.47;;;1.50;99.90;;;;;;4994111;28;20041;-77
2022/03/31 02:04:03;;;;;;;7.63;2.75;;;1.50;99.90;;;;;;4994006;28;20492;-77
2022/03/31 02:06:29;;;;;;;8.55;2.70;;;1.50;99.90;;;;;;5009205;28;20083;-76
2022/03/31 02:08:56;;;;;;;10.00;3.10;;;1.50;99.90;;;;;;5013509;28;20049;-76
2022/03/31 02:11:22;;;;;;;5.15;2.70;;;1.50;99.90;;;;;;5013821;28;20121;-77
2022/03/31 02:13:48;;;;;;;7.03;2.30;;;1.50;99.90;;;;;;5013873;28;20400;-76
2022/03/31 02:16:13;;;;;;;5.55;2.40;;;1.50;99.90;;;;;;5013720;28;20048;-77
2022/03/31 02:18:40;;;;;;;5.32;2.50;;;1.50;99.90;;;;;;5013640;28;20408;-77
2022/03/31 02:21:05;;;;;;;5.68;2.15;;;1.60;99.90;;;;;;5013155;28;20480;-77
2022/03/31 02:23:31;;;;;;;6.90;2.22;;;1.60;99.90;;;;;;4997174;28;20034;-76
2022/03/31 02:25:57;;;;;;;5.43;2.58;;;1.60;99.90;;;;;;4996947;28;20034;-76
2022/03/31 02:28:22;;;;;;;4.85;2.28;;;1.60;99.90;;;;;;5013424;28;20038;-76
2022/03/31 02:30:48;;;;;;;5.22;2.22;;;1.60;99.90;;;;;;4997442;28;20037;-76
2022/03/31 02:33:14;;;;;;;3.88;2.03;;;1.70;99.90;;;;;;5029233;28;20047;-76
2022/03/31 02:35:39;;;;;;;4.60;2.33;;;1.70;99.90;;;;;;4977692;28;20129;-77
2022/03/31 02:38:05;;;;;;;3.85;1.90;;;1.80;99.90;;;;;;4988325;28;20409;-77
2022/03/31 02:40:30;;;;;;;4.75;2.53;;;1.80;99.90;;;;;;4997308;28;20340;-76
2022/03/31 02:42:56;;;;;;;9.30;2.13;;;1.80;99.90;;;;;;5012931;28;20100;-76
2022/03/31 02:45:22;;;;;;;6.13;2.00;;;1.80;99.90;;;;;;5013499;28;20125;-76
2022/03/31 02:47:47;;;;;;;6.38;1.92;;;1.80;99.90;;;;;;4996889;28;20112;-76
2022/03/31 02:50:17;;;;;;;3.95;1.90;;;1.80;99.90;;;;;;5013563;28;20132;-76
2022/03/31 02:55:28;;;;;;;3.80;1.83;;;1.80;99.90;;;;;;5013347;28;20122;-76
2022/03/31 02:58:00;;;;;;;3.58;1.83;;;1.80;99.90;;;;;;4996652;28;20037;-76
2022/03/31 03:00:27;;;;;;;3.75;2.08;;;1.80;99.90;;;;;;5015384;28;20099;-76
2022/03/31 03:02:53;;;;;;;6.47;2.08;;;1.90;99.90;;;;;;5016406;28;20030;-76
2022/03/31 03:05:19;;;;;;;6.38;2.25;;;1.90;99.90;;;;;;5016913;28;20039;-76
2022/03/31 03:07:45;;;;;;;5.57;1.98;;;1.90;99.90;;;;;;5000620;28;20041;-76
2022/03/31 03:10:10;;;;;;;3.67;2.08;;;1.90;99.90;;;;;;5016980;28;20037;-77
2022/03/31 03:12:36;;;;;;;3.78;1.92;;;1.90;99.90;;;;;;5004995;28;20053;-77
2022/03/31 03:15:03;;;;;;;8.15;2.60;;;2.00;99.90;;;;;;5016927;28;20038;-77
2022/03/31 03:17:29;;;;;;;6.80;2.35;;;2.00;99.90;;;;;;5000463;28;20049;-76
2022/03/31 03:19:54;;;;;;;7.10;2.10;;;2.00;99.90;;;;;;5016795;28;20038;-76
2022/03/31 03:22:20;;;;;;;3.88;2.22;;;1.90;99.90;;;;;;5023478;28;20029;-77
2022/03/31 03:24:45;;;;;;;5.47;2.25;;;2.00;99.90;;;;;;5016595;28;20041;-77
2022/03/31 03:27:11;;;;;;;7.95;2.35;;;1.90;99.90;;;;;;5000371;28;20045;-77
2022/03/31 03:29:36;;;;;;;8.40;2.80;;;1.90;99.90;;;;;;5015866;28;20488;-77
2022/03/31 03:32:02;;;;;;;5.75;2.63;;;1.90;99.90;;;;;;5000123;28;20048;-77
2022/03/31 03:34:28;;;;;;;7.78;2.92;;;1.90;99.90;;;;;;5016264;28;20415;-77
2022/03/31 03:36:53;;;;;;;6.43;2.58;;;1.90;99.90;;;;;;5000116;28;20052;-77
2022/03/31 03:39:19;;;;;;;5.65;2.83;;;1.90;99.90;;;;;;5000197;28;20037;-77
2022/03/31 03:41:44;;;;;;;9.02;3.72;;;1.90;99.90;;;;;;5016304;28;20120;-77
2022/03/31 03:44:10;;;;;;;11.75;4.05;;;1.90;99.90;;;;;;5008032;28;20041;-77
2022/03/31 03:46:35;;;;;;;8.10;3.75;;;1.90;99.90;;;;;;5016191;28;20041;-77
2022/03/31 03:49:01;;;;;;;8.70;3.40;;;1.90;99.90;;;;;;5016228;28;20479;-77
2022/03/31 03:51:27;;;;;;;9.23;4.05;;;1.90;99.90;;;;;;5015976;28;20038;-77
2022/03/31 03:53:53;;;;;;;8.68;4.38;;;1.90;99.90;;;;;;5015717;28;20459;-77
2022/03/31 03:56:19;;;;;;;9.23;4.57;;;1.90;99.90;;;;;;5016084;28;20063;-77
2022/03/31 03:58:45;;;;;;;9.50;4.57;;;2.00;99.90;;;;;;4999972;28;20560;-77
2022/03/31 04:01:11;;;;;;;9.45;4.68;;;2.00;99.90;;;;;;5015615;28;20092;-77
2022/03/31 04:03:36;;;;;;;9.27;4.53;;;2.00;99.90;;;;;;5015838;28;20037;-77
2022/03/31 04:06:02;;;;;;;9.70;4.07;;;2.00;99.90;;;;;;5015940;28;20485;-77
2022/03/31 04:08:28;;;;;;;6.10;3.78;;;2.00;99.90;;;;;;5015487;28;20095;-77
2022/03/31 04:10:53;;;;;;;6.47;4.20;;;2.00;99.90;;;;;;5015671;28;20507;-77
2022/03/31 04:13:20;;;;;;;9.13;4.50;;;2.00;99.90;;;;;;5015350;28;20042;-77
2022/03/31 04:15:46;;;;;;;8.82;4.40;;;2.00;99.90;;;;;;5015563;28;20321;-77
2022/03/31 04:18:11;;;;;;;9.13;4.55;;;2.00;99.90;;;;;;5015421;28;20037;-77
2022/03/31 04:20:37;;;;;;;7.10;4.07;;;1.90;99.90;;;;;;5015537;28;20036;-77
2022/03/31 04:23:03;;;;;;;8.88;4.80;;;1.90;99.90;;;;;;5015422;28;20073;-77
2022/03/31 04:25:29;;;;;;;8.13;4.70;;;1.90;99.90;;;;;;5015605;28;20068;-77
2022/03/31 04:27:54;;;;;;;9.88;5.10;;;2.00;99.90;;;;;;5015271;28;20569;-77
2022/03/31 04:30:21;;;;;;;11.52;6.22;;;2.00;99.90;;;;;;5005405;28;20038;-77
2022/03/31 04:32:48;;;;;;;10.75;6.05;;;2.00;99.90;;;;;;5014843;28;20415;-77
2022/03/31 04:35:14;;;;;;;9.20;5.85;;;2.00;99.90;;;;;;5015270;28;20128;-77
2022/03/31 04:37:40;;;;;;;10.23;5.82;;;2.00;99.90;;;;;;5014828;28;20038;-77
2022/03/31 04:40:08;;;;;;;13.50;6.50;;;2.00;99.90;;;;;;5015376;28;20092;-77
2022/03/31 04:42:34;;;;;;;11.05;5.72;;;1.90;99.90;;;;;;5014800;28;20056;-77
2022/03/31 04:45:02;;;;;;;10.70;6.28;;;2.00;99.90;;;;;;5018346;28;20044;-76
2022/03/31 04:47:31;;;;;;;12.75;7.07;;;1.90;99.90;;;;;;5014774;28;20040;-77
2022/03/31 04:49:57;;;;;;;10.00;6.88;;;1.90;99.90;;;;;;5014828;28;20041;-77
2022/03/31 04:52:22;;;;;;;13.02;7.07;;;1.90;99.90;;;;;;5014789;28;20095;-77
2022/03/31 04:54:48;;;;;;;9.70;7.20;;;1.90;99.90;;;;;;4998501;28;20488;-77
2022/03/31 04:57:18;;;;;;;11.70;8.45;;;1.90;99.90;;;;;;5014726;28;20088;-78
2022/03/31 04:59:43;;;;;;;12.75;8.00;;;1.90;99.90;;;;;;5015213;28;20037;-78
2022/03/31 05:02:10;;;;;;;12.25;9.43;;;1.90;99.90;;;;;;4998647;28;20751;-77
2022/03/31 05:04:36;;;;;;;14.13;9.43;;;1.90;99.90;;;;;;4998586;28;20056;-77
2022/03/31 05:07:01;;;;;;;13.10;9.55;;;1.90;99.90;;;;;;5000869;28;20488;-79
2022/03/31 05:09:27;;;;;;;14.02;9.40;;;1.90;99.90;;;;;;4995658;28;20052;-77
2022/03/31 05:11:53;;;;;;;13.52;9.68;;;1.90;99.90;;;;;;5015731;28;20113;-78
2022/03/31 05:14:18;;;;;;;12.23;9.27;;;1.90;99.90;;;;;;5015332;28;20045;-77
2022/03/31 05:16:44;;;;;;;15.75;10.20;;;1.90;99.90;;;;;;5014626;28;20038;-77
2022/03/31 05:19:11;;;;;;;15.98;10.65;;;1.90;99.90;;;;;;5015592;28;20041;-77
2022/03/31 05:21:36;;;;;;;12.88;9.73;;;2.00;99.90;;;;;;5015394;28;20041;-77
2022/03/31 05:24:02;;;;;;;14.93;10.02;;;1.90;99.90;;;;;;5014519;28;20111;-77
2022/03/31 05:26:28;;;;;;;15.32;10.27;;;2.00;99.90;;;;;;4999147;28;20042;-77
2022/03/31 05:28:53;;;;;;;13.98;10.82;;;2.00;99.90;;;;;;4999508;28;20033;-78
2022/03/31 05:31:19;;;;;;;15.20;10.45;;;2.00;99.90;;;;;;4997085;28;20034;-76
2022/03/31 05:33:45;;;;;;;12.38;10.02;;;2.00;99.90;;;;;;5007525;28;20049;-76
2022/03/31 05:36:10;;;;;;;13.80;10.57;;;2.00;99.90;;;;;;5001815;28;20500;-75
2022/03/31 05:38:36;;;;;;;12.60;10.38;;;2.00;99.90;;;;;;4997826;28;20038;-75
2022/03/31 05:41:02;;;;;;;15.20;11.75;;;2.00;99.90;;;;;;5013748;28;20076;-75
2022/03/31 05:43:28;;;;;;;13.55;10.98;;;2.10;99.90;;;;;;4997411;28;20580;-77
2022/03/31 05:45:54;;;;;;;13.60;10.43;;;2.10;99.90;;;;;;4998863;28;20064;-77
2022/03/31 05:48:19;;;;;;;12.32;10.02;;;2.10;99.90;;;;;;5014911;28;20512;-77
2022/03/31 05:50:45;;;;;;;12.77;10.30;;;2.10;99.90;;;;;;5014352;28;20037;-77
2022/03/31 05:53:10;;;;;;;11.70;9.13;;;2.10;99.90;;;;;;5029806;28;20033;-75
2022/03/31 05:55:36;;;;;;;13.27;10.25;;;2.10;99.90;;;;;;5017483;28;20038;-77
2022/03/31 05:58:02;;;;;;;13.25;10.18;;;2.20;99.90;;;;;;5008553;28;20389;-79
2022/03/31 06:00:28;;;;;;;14.45;9.30;;;2.20;99.90;;;;;;4996212;28;20033;-79
2022/03/31 06:02:55;;;;;;;12.30;8.95;;;2.20;99.90;;;;;;4997469;28;20040;-79
2022/03/31 06:05:21;;;;;;;10.70;9.07;;;2.20;99.90;;;;;;4997930;28;20037;-78
2022/03/31 06:07:47;;;;;;;11.35;9.35;;;2.30;99.90;;;;;;4998148;28;20492;-79
2022/03/31 06:10:13;;;;;;;10.80;9.23;;;2.30;99.90;;;;;;5014307;28;20107;-78
2022/03/31 06:12:39;;;;;;;10.60;8.88;;;2.30;99.90;;;;;;4997165;28;20489;-78
2022/03/31 06:15:06;;;;;;;12.10;9.38;;;2.30;99.90;;;;;;4997111;28;20041;-78
2022/03/31 06:17:32;;;;;;;11.43;9.48;;;2.30;99.90;;;;;;5014135;28;20095;-78
2022/03/31 06:19:58;;;;;;;10.18;8.90;;;2.30;99.90;;;;;;5014559;28;20037;-78
2022/03/31 06:22:24;;;;;;;12.00;9.57;;;2.40;99.90;;;;;;4998121;28;20029;-78
2022/03/31 06:24:50;;;;;;;9.55;7.68;;;2.40;99.90;;;;;;5014105;28;20040;-78
2022/03/31 06:27:16;;;;;;;11.10;9.35;;;2.40;99.90;;;;;;4998178;28;20499;-78
2022/03/31 06:29:45;;;;;;;11.25;9.50;;;2.50;99.90;;;;;;5014110;28;20052;-78
2022/03/31 06:32:13;;;;;;;13.23;9.90;;;2.50;99.90;;;;;;4998292;28;20053;-78
2022/03/31 06:34:39;;;;;;;13.60;11.43;;;2.40;99.90;;;;;;5014903;28;20302;-78
2022/03/31 06:37:05;;;;;;;12.68;10.18;;;2.50;99.90;;;;;;5001967;28;20038;-78
2022/03/31 06:39:30;;;;;;;12.93;10.90;;;2.50;99.90;;;;;;5018219;28;20033;-78
2022/03/31 06:41:56;;;;;;;15.23;11.60;;;2.40;99.90;;;;;;5018204;28;20041;-78
2022/03/31 06:44:22;;;;;;;12.13;10.02;;;2.50;99.90;;;;;;5001687;28;20554;-78
2022/03/31 06:46:47;;;;;;;12.73;10.52;;;2.50;99.90;;;;;;5001598;28;20041;-79
2022/03/31 06:49:13;;;;;;;14.20;11.07;;;2.50;99.90;;;;;;5001494;28;20045;-78
2022/03/31 06:51:38;;;;;;;14.15;11.65;;;2.50;99.90;;;;;;5018069;28;20124;-78
2022/03/31 06:54:04;;;;;;;12.63;10.75;;;2.50;99.90;;;;;;5018140;28;20431;-78
2022/03/31 06:56:31;;;;;;;13.57;11.45;;;2.60;99.90;;;;;;5001614;28;20146;-79
2022/03/31 06:58:58;;;;;;;12.90;10.68;;;2.60;99.90;;;;;;5018251;28;20040;-78
2022/03/31 07:01:24;;;;;;;14.20;11.65;;;2.60;99.90;;;;;;5001989;28;20399;-78
2022/03/31 07:03:51;;;;;;;13.75;10.52;;;2.60;99.90;;;;;;5001274;28;20048;-78
2022/03/31 07:06:17;;;;;;;12.38;10.75;;;2.60;99.90;;;;;;5001688;28;20129;-78
2022/03/31 07:08:43;;;;;;;12.85;10.50;;;2.70;99.90;;;;;;5018105;28;20506;-78
2022/03/31 07:11:09;;;;;;;13.15;10.68;;;2.70;99.90;;;;;;5001435;28;20041;-78
2022/03/31 07:13:36;;;;;;;11.45;9.13;;;2.80;99.90;;;;;;5001482;28;20067;-79
2022/03/31 07:16:02;;;;;;;13.43;11.07;;;2.80;99.90;;;;;;5001204;28;20041;-78
2022/03/31 07:18:27;;;;;;;14.38;11.68;;;2.80;99.90;;;;;;5001320;28;20377;-79
2022/03/31 07:20:53;;;;;;;12.80;10.45;;;2.80;99.90;;;;;;5000875;28;20095;-78
2022/03/31 07:23:20;;;;;;;13.88;11.63;;;2.90;99.90;;;;;;5000869;28;20087;-78
2022/03/31 07:25:47;;;;;;;13.30;10.65;;;2.80;99.90;;;;;;5017342;28;20052;-79
2022/03/31 07:28:14;;;;;;;13.93;11.93;;;2.90;99.90;;;;;;5000860;28;20107;-78
2022/03/31 07:30:39;;;;;;;15.60;12.68;;;2.90;99.90;;;;;;5000951;28;20094;-79
2022/03/31 07:33:05;;;;;;;14.05;12.43;;;2.80;99.90;;;;;;5000625;28;20041;-78
2022/03/31 07:35:32;;;;;;;13.27;11.88;;;2.90;99.90;;;;;;5017353;28;20064;-78
2022/03/31 07:38:00;;;;;;;16.45;12.27;;;2.90;99.90;;;;;;5000783;28;20403;-79
2022/03/31 07:40:26;;;;;;;15.27;12.38;;;2.90;99.90;;;;;;5000663;28;20427;-79
2022/03/31 07:42:53;;;;;;;14.82;12.27;;;2.90;99.90;;;;;;5000518;28;20369;-79
2022/03/31 07:45:19;;;;;;;12.82;10.95;;;2.90;99.90;;;;;;5016240;28;20033;-79
2022/03/31 07:47:46;;;;;;;12.13;10.77;;;2.90;99.90;;;;;;5000525;28;20053;-79
2022/03/31 07:50:14;;;;;;;11.60;10.25;;;2.90;99.90;;;;;;5000332;28;20172;-79
2022/03/31 07:52:40;;;;;;;13.82;11.75;;;2.90;99.90;;;;;;5000030;28;20041;-79
2022/03/31 07:55:08;;;;;;;14.40;12.20;;;2.90;99.90;;;;;;5000408;28;20041;-80
2022/03/31 07:57:33;;;;;;;13.63;10.90;;;2.90;99.90;;;;;;5016507;28;20054;-79
2022/03/31 07:59:59;;;;;;;12.32;11.02;;;2.90;99.90;;;;;;5016829;28;20048;-79
2022/03/31 08:02:25;;;;;;;12.40;11.02;;;2.90;99.90;;;;;;5016631;28;20108;-80
2022/03/31 08:04:52;;;;;;;14.30;12.00;;;2.90;99.90;;;;;;5000079;28;20136;-80
2022/03/31 08:07:18;;;;;;;12.73;11.38;;;2.80;99.90;;;;;;5000272;28;20124;-80
2022/03/31 08:09:43;;;;;;;13.43;11.77;;;2.80;99.90;;;;;;5000140;28;20148;-80
2022/03/31 08:12:10;;;;;;;11.75;10.52;;;2.90;99.90;;;;;;5000138;28;20040;-80
2022/03/31 08:14:36;;;;;;;13.25;10.80;;;2.80;99.90;;;;;;5000028;28;20052;-79
2022/03/31 08:17:02;;;;;;;15.20;12.68;;;2.80;99.90;;;;;;4999885;28;20042;-80
2022/03/31 08:19:30;;;;;;;13.57;10.95;;;2.80;99.90;;;;;;4999773;28;20083;-79
2022/03/31 08:21:56;;;;;;;13.20;11.57;;;2.80;99.90;;;;;;4999700;28;20042;-79
2022/03/31 08:24:21;;;;;;;14.57;12.93;;;2.80;99.90;;;;;;5015953;28;20488;-80
2022/03/31 08:26:47;;;;;;;13.25;11.85;;;2.80;99.90;;;;;;4999992;28;20137;-79
2022/03/31 08:29:13;;;;;;;14.32;12.77;;;2.90;99.90;;;;;;5032840;28;20037;-79
2022/03/31 08:31:38;;;;;;;12.85;11.35;;;2.80;99.90;;;;;;5016214;28;20038;-79
2022/03/31 08:34:05;;;;;;;14.20;11.82;;;2.80;99.90;;;;;;4999668;28;20126;-79
2022/03/31 08:36:31;;;;;;;13.10;10.82;;;2.80;99.90;;;;;;4999730;28;20076;-79
2022/03/31 08:38:57;;;;;;;12.00;10.70;;;2.80;99.90;;;;;;4999391;28;20077;-79
2022/03/31 08:41:25;;;;;;;13.50;10.45;;;2.80;99.90;;;;;;5000017;28;20038;-80
2022/03/31 08:43:51;;;;;;;12.35;10.63;;;2.70;99.90;;;;;;4999537;28;20045;-78
2022/03/31 08:46:16;;;;;;;12.77;10.48;;;2.70;99.90;;;;;;4999429;28;20606;-80
2022/03/31 08:48:42;;;;;;;13.57;11.30;;;2.70;99.90;;;;;;4999506;28;20040;-79
2022/03/31 08:51:09;;;;;;;12.88;11.43;;;2.60;99.90;;;;;;5016076;28;20136;-79
2022/03/31 08:53:35;;;;;;;14.20;12.30;;;2.60;99.90;;;;;;5015560;28;20092;-80
2022/03/31 08:56:01;;;;;;;13.25;11.63;;;2.70;99.90;;;;;;5015635;28;20048;-80
2022/03/31 08:58:27;;;;;;;12.27;10.63;;;2.60;99.90;;;;;;5015023;28;20524;-80
2022/03/31 09:00:53;;;;;;;12.95;10.48;;;2.60;99.90;;;;;;4999383;28;20387;-80
2022/03/31 09:03:19;;;;;;;12.27;10.98;;;2.60;99.90;;;;;;4998963;28;20057;-79
2022/03/31 09:05:49;;;;;;;15.15;12.10;;;2.50;99.90;;;;;;4999025;28;20029;-79
2022/03/31 09:08:16;;;;;;;20.40;16.42;;;2.40;99.90;;;;;;4998930;28;20508;-79
2022/03/31 09:10:52;;;;;;;18.30;14.77;;;2.40;99.90;;;;;;4999009;28;20033;-79
2022/03/31 09:13:26;;;;;;;14.85;11.80;;;2.30;99.90;;;;;;4999129;28;20060;-78
2022/03/31 09:15:58;;;;;;;14.80;11.82;;;2.40;99.90;;;;;;4999259;28;20465;-79
2022/03/31 09:18:26;;;;;;;13.05;11.32;;;2.40;99.90;;;;;;4998620;28;20065;-80
2022/03/31 09:20:54;;;;;;;12.82;10.95;;;2.40;99.90;;;;;;4998674;28;20072;-79
2022/03/31 09:23:31;;;;;;;13.30;11.35;;;2.40;99.90;;;;;;4998363;28;20045;-80
2022/03/31 09:26:06;;;;;;;12.57;10.52;;;2.30;99.90;;;;;;4998924;28;20056;-79
2022/03/31 09:28:32;;;;;;;12.75;10.68;;;2.40;99.90;;;;;;5000963;28;20412;-80
2022/03/31 09:30:57;;;;;;;15.02;12.35;;;2.40;99.90;;;;;;5015749;28;20041;-79
2022/03/31 09:33:33;;;;;;;12.85;11.10;;;2.40;99.90;;;;;;5014983;28;20516;-79
2022/03/31 09:36:06;;;;;;;12.40;10.68;;;2.40;99.90;;;;;;4999051;28;20045;-79
2022/03/31 09:38:38;;;;;;;;;;;2.40;99.90;;;;;;5015339;28;20042;-79
2022/03/31 09:41:18;;;;;;;13.15;11.43;;;2.30;99.90;;;;;;4998506;28;19921;-79
2022/03/31 09:43:44;;;;;;;11.95;10.55;;;2.30;99.90;;;;;;4998458;28;20511;-79
2022/03/31 09:46:23;;;;;;;12.05;10.75;;;2.30;99.90;;;;;;5014725;28;20404;-79
2022/03/31 09:48:50;;;;;;;11.93;10.48;;;2.30;99.90;;;;;;4998409;28;20052;-79
2022/03/31 09:51:16;;;;;;;11.98;10.63;;;2.30;99.90;;;;;;4998179;28;20043;-79
2022/03/31 09:53:42;;;;;;;11.23;9.65;;;2.30;99.90;;;;;;5014244;28;20060;-79
2022/03/31 09:56:08;;;;;;;13.20;10.00;;;2.20;99.90;;;;;;5014470;28;20037;-79
2022/03/31 09:58:38;;;;;;;11.07;9.88;;;2.20;99.90;;;;;;5014473;28;20065;-79
2022/03/31 10:01:05;;;;;;;11.23;10.00;;;2.20;99.90;;;;;;5014648;28;20049;-79
2022/03/31 10:03:31;;;;;;;11.77;9.27;;;2.30;99.90;;;;;;4997923;28;20499;-79
2022/03/31 10:05:58;;;;;;;11.25;9.35;;;2.30;99.90;;;;;;4998091;28;20037;-79
2022/03/31 10:08:24;;;;;;;8.95;8.02;;;2.30;99.90;;;;;;5014642;28;20046;-79
2022/03/31 10:10:50;;;;;;;9.73;8.73;;;2.40;99.90;;;;;;5014261;28;20048;-79
2022/03/31 10:13:25;;;;;;;10.60;8.93;;;2.40;99.90;;;;;;4997943;28;20092;-79
2022/03/31 10:15:59;;;;;;;9.50;8.18;;;2.40;99.90;;;;;;5014278;28;20099;-79
2022/03/31 10:18:25;;;;;;;8.73;7.80;;;2.40;99.90;;;;;;5014223;28;20052;-79
2022/03/31 10:20:57;;;;;;;7.22;6.53;;;2.40;99.90;;;;;;4998192;28;20289;-78
2022/03/31 10:26:19;;;;;;;8.40;5.70;;;2.50;99.90;;;;;;5014388;28;20049;-79
2022/03/31 10:29:00;;;;;;;7.15;6.13;;;2.60;99.90;;;;;;5014502;28;20064;-78
2022/03/31 10:31:44;;;;;;;6.82;5.82;;;2.50;99.90;;;;;;5014809;28;20513;-79
2022/03/31 10:34:11;;;;;;;7.65;6.40;;;2.60;99.90;;;;;;5014084;28;20044;-78
2022/03/31 10:36:40;;;;;;;6.95;5.25;;;2.50;99.90;;;;;;5014384;28;20107;-79
2022/03/31 10:39:14;;;;;;;6.90;5.47;;;2.60;99.90;;;;;;5014194;28;20049;-79
2022/03/31 10:41:39;;;;;;;7.18;5.88;;;2.70;99.90;;;;;;5014488;28;20037;-78
2022/03/31 10:44:17;;;;;;;8.05;6.10;;;2.70;99.90;;;;;;5013891;28;20516;-79
2022/03/31 10:46:45;;;;;;;6.80;5.40;;;2.70;99.90;;;;;;4997978;28;20038;-78
2022/03/31 10:49:13;;;;;;;5.57;4.47;;;2.60;99.90;;;;;;5014736;28;20068;-78
2022/03/31 10:51:43;;;;;;;6.72;5.10;;;2.60;99.90;;;;;;5014735;28;20472;-78
2022/03/31 10:54:22;;;;;;;7.13;5.45;;;2.70;99.90;;;;;;5014290;28;20095;-79
2022/03/31 10:56:48;;;;;;;6.40;4.85;;;2.70;99.90;;;;;;5013993;28;20071;-79
2022/03/31 10:59:15;;;;;;;6.25;4.90;;;2.60;99.90;;;;;;5014446;28;20132;-79
2022/03/31 11:01:41;;;;;;;5.60;4.63;;;2.70;99.90;;;;;;5014470;28;20124;-79
2022/03/31 11:04:09;;;;;;;6.45;4.50;;;2.60;99.90;;;;;;5013976;28;20040;-79
2022/03/31 11:07:04;;;;;;;5.80;4.70;;;2.60;99.90;;;;;;5014479;28;20519;-80
2022/03/31 11:09:31;;;;;;;5.20;4.18;;;2.50;99.90;;;;;;4993483;28;20053;-79
2022/03/31 11:11:59;;;;;;;5.68;4.65;;;2.50;99.90;;;;;;5014291;28;20045;-79
2022/03/31 11:14:25;;;;;;;6.00;4.35;;;2.50;99.90;;;;;;5013766;28;20091;-79
2022/03/31 11:16:51;;;;;;;6.28;5.05;;;2.50;99.90;;;;;;5014209;28;20063;-78
2022/03/31 11:19:20;;;;;;;5.88;4.15;;;2.50;99.90;;;;;;5014027;28;20041;-79
2022/03/31 11:21:46;;;;;;;5.47;4.25;;;2.40;99.90;;;;;;5016607;28;20052;-78
2022/03/31 11:24:12;;;;;;;5.60;4.38;;;2.40;99.90;;;;;;5017356;28;20029;-79
2022/03/31 11:26:44;;;;;;;5.70;4.38;;;2.40;99.90;;;;;;5017696;28;20168;-78
2022/03/31 11:29:26;;;;;;;6.03;4.97;;;2.40;99.90;;;;;;5086603;22;20058;-79
2022/03/31 11:36:25;;;;;;;5.35;4.30;;;2.30;99.90;;;;;;4996075;28;20046;-79
2022/03/31 11:39:29;;;;;;;5.45;4.10;;;2.20;99.90;;;;;;4975927;28;20049;-78
2022/03/31 11:42:27;;;;;;;5.82;4.30;;;2.20;99.90;;;;;;4995763;28;20061;-78
2022/03/31 11:45:33;;;;;;;4.90;3.92;;;2.20;99.90;;;;;;4981010;28;20104;-78
2022/03/31 11:48:38;;;;;;;5.43;4.00;;;2.10;99.90;;;;;;4982155;28;20472;-78
2022/03/31 11:51:13;;;;;;;4.88;3.72;;;2.20;99.90;;;;;;4980516;28;20065;-78
2022/03/31 11:53:52;;;;;;;;;;;;;;;;;;;;;
2022/03/31 11:56:40;;;;;;;5.13;4.15;;;2.10;99.90;;;;;;4995044;28;20248;-78
2022/03/31 11:59:40;;;;;;;5.93;4.38;;;1.90;99.90;;;;;;4980736;28;20048;-78
2022/03/31 12:09:48;;;;;;;;;;;;;;;;;;;;;
2022/03/31 12:23:27;;;;;;;7.07;6.18;;;1.40;99.90;;;;;;4922046;28;20051;-78
2022/03/31 12:26:38;;;;;;;10.57;8.38;;;1.30;99.90;;;;;;4985891;28;20054;-78
2022/03/31 12:37:28;;;;;;;7.97;6.07;;;1.30;99.90;;;;;;4887128;29;20491;-78
2022/03/31 12:40:40;;;;;;;;;;;;;;;;;;;;;
2022/03/31 12:51:23;;;;;;;9.02;6.25;;;1.20;99.90;;;;;;4996028;28;20125;-79
2022/03/31 12:54:14;;;;;;;7.85;5.57;;;1.30;99.90;;;;;;4979753;28;20412;-79
2022/03/31 13:04:45;;;;;;;8.77;6.57;;;1.40;99.90;;;;;;4979939;28;20416;-79
2022/03/31 13:08:00;;;;;;;8.75;6.70;;;1.40;99.90;;;;;;4943872;28;20043;-79
2022/03/31 13:11:14;;;;;;;10.85;7.13;;;1.40;99.90;;;;;;4994752;28;20049;-79
2022/03/31 13:20:46;;;;;;;10.47;7.93;;;1.50;99.90;;;;;;5061026;22;20042;-79
2022/03/31 13:31:01;;;;;;;9.77;7.45;;;1.50;99.90;;;;;;4886141;29;20048;-79
2022/03/31 13:33:31;;;;;;;11.02;8.80;;;1.60;99.90;;;;;;5020232;22;20050;-78
2022/03/31 13:35:57;;;;;;;11.20;9.27;;;1.50;99.90;;;;;;4998944;28;20041;-78
2022/03/31 13:38:22;;;;;;;10.95;8.63;;;1.60;99.90;;;;;;4998396;28;20049;-78
2022/03/31 13:40:48;;;;;;;12.25;9.60;;;1.60;99.90;;;;;;4998108;28;20049;-77
2022/03/31 13:43:13;;;;;;;12.10;9.52;;;1.60;99.90;;;;;;5014070;28;20088;-77
2022/03/31 13:45:40;;;;;;;11.80;10.13;;;1.60;99.90;;;;;;5014722;28;20547;-77
2022/03/31 13:48:05;;;;;;;12.48;10.02;;;1.60;99.90;;;;;;4998302;28;20033;-78
2022/03/31 13:50:31;;;;;;;13.32;10.27;;;1.60;99.90;;;;;;5014818;28;20041;-78
2022/03/31 13:55:40;;;;;;;13.60;10.50;;;1.50;99.90;;;;;;5014367;28;20048;-77
2022/03/31 14:01:10;;;;;;;14.10;10.48;;;1.50;99.90;;;;;;5014452;28;20096;-78
2022/03/31 14:03:44;;;;;;;15.63;12.23;;;1.60;99.90;;;;;;5014564;28;20041;-78
2022/03/31 14:06:13;;;;;;;14.60;11.65;;;1.60;99.90;;;;;;5014359;28;20491;-78
2022/03/31 14:08:39;;;;;;;16.65;13.32;;;1.60;99.90;;;;;;5014787;28;20519;-78
2022/03/31 14:11:06;;;;;;;21.02;14.45;;;1.60;99.90;;;;;;5014440;28;20407;-78
2022/03/31 14:13:33;;;;;;;18.98;14.05;;;1.60;99.90;;;;;;5014297;28;20376;-78
2022/03/31 14:16:03;;;;;;;22.20;17.08;;;1.60;99.90;;;;;;5014284;28;20111;-78
2022/03/31 14:18:41;;;;;;;21.25;15.38;;;1.70;99.90;;;;;;5014117;28;20045;-78
2022/03/31 14:21:08;;;;;;;25.65;18.80;;;1.70;99.90;;;;;;5014221;28;20099;-78
2022/03/31 14:23:35;;;;;;;30.77;20.52;;;1.80;99.90;;;;;;5013796;28;20080;-78
2022/03/31 14:26:01;;;;;;;36.30;24.80;;;1.90;99.90;;;;;;5014010;28;20044;-77